sensor_id;sensor_type;location;lat;lon;timestamp;P1;durP1;ratioP1;P2;durP2;ratioP2
34234;SDS011;20500;49.856;20.290;2024-01-30T00:00:49;49.60;;;33.00;;
34234;SDS011;20500;49.856;20.290;2024-01-30T00:03:56;57.80;;;37.20;;
34234;SDS011;20500;49.856;20.290;2024-01-30T00:07:02;56.20;;;35.60;;
34234;SDS011;20500;49.856;20.290;2024-01-30T00:10:10;54.90;;;35.30;;
34234;SDS011;20500;49.856;20.290;2024-01-30T00:13:16;62.70;;;38.20;;
34234;SDS011;20500;49.856;20.290;2024-01-30T00:16:23;64.40;;;40.10;;
34234;SDS011;20500;49.856;20.290;2024-01-30T00:19:32;62.00;;;38.60;;
34234;SDS011;20500;49.856;20.290;2024-01-30T00:22:39;64.00;;;41.50;;
34234;SDS011;20500;49.856;20.290;2024-01-30T00:25:45;59.60;;;39.90;;
34234;SDS011;20500;49.856;20.290;2024-01-30T00:31:56;69.70;;;45.10;;
34234;SDS011;20500;49.856;20.290;2024-01-30T00:35:03;62.10;;;39.50;;
34234;SDS011;20500;49.856;20.290;2024-01-30T00:38:10;62.30;;;39.70;;
34234;SDS011;20500;49.856;20.290;2024-01-30T00:44:23;67.30;;;42.10;;
34234;SDS011;20500;49.856;20.290;2024-01-30T00:47:29;57.20;;;39.20;;
34234;SDS011;20500;49.856;20.290;2024-01-30T00:50:36;40.60;;;25.40;;
34234;SDS011;20500;49.856;20.290;2024-01-30T00:53:42;61.90;;;39.70;;
34234;SDS011;20500;49.856;20.290;2024-01-30T00:56:49;62.90;;;41.80;;
34234;SDS011;20500;49.856;20.290;2024-01-30T00:59:55;62.30;;;40.10;;
34234;SDS011;20500;49.856;20.290;2024-01-30T01:03:02;64.80;;;40.80;;
34234;SDS011;20500;49.856;20.290;2024-01-30T01:06:09;64.40;;;39.60;;
34234;SDS011;20500;49.856;20.290;2024-01-30T01:09:15;61.60;;;38.90;;
34234;SDS011;20500;49.856;20.290;2024-01-30T01:12:22;62.80;;;38.30;;
34234;SDS011;20500;49.856;20.290;2024-01-30T01:15:28;58.20;;;38.20;;
34234;SDS011;20500;49.856;20.290;2024-01-30T01:18:35;57.20;;;36.00;;
34234;SDS011;20500;49.856;20.290;2024-01-30T01:21:41;57.70;;;37.30;;
34234;SDS011;20500;49.856;20.290;2024-01-30T01:27:52;43.20;;;29.20;;
34234;SDS011;20500;49.856;20.290;2024-01-30T01:30:59;56.90;;;35.80;;
34234;SDS011;20500;49.856;20.290;2024-01-30T01:34:09;58.90;;;36.10;;
34234;SDS011;20500;49.856;20.290;2024-01-30T01:37:16;56.90;;;35.70;;
34234;SDS011;20500;49.856;20.290;2024-01-30T01:40:25;57.70;;;37.50;;
34234;SDS011;20500;49.856;20.290;2024-01-30T01:43:32;60.50;;;38.60;;
34234;SDS011;20500;49.856;20.290;2024-01-30T01:46:38;61.20;;;36.90;;
34234;SDS011;20500;49.856;20.290;2024-01-30T01:49:45;59.80;;;37.30;;
34234;SDS011;20500;49.856;20.290;2024-01-30T01:52:52;50.20;;;32.60;;
34234;SDS011;20500;49.856;20.290;2024-01-30T01:56:00;55.70;;;36.80;;
34234;SDS011;20500;49.856;20.290;2024-01-30T01:59:07;61.80;;;37.90;;
34234;SDS011;20500;49.856;20.290;2024-01-30T02:02:13;61.30;;;35.60;;
34234;SDS011;20500;49.856;20.290;2024-01-30T02:05:22;55.20;;;34.70;;
34234;SDS011;20500;49.856;20.290;2024-01-30T02:08:29;55.30;;;35.90;;
34234;SDS011;20500;49.856;20.290;2024-01-30T02:11:36;55.70;;;34.70;;
34234;SDS011;20500;49.856;20.290;2024-01-30T02:14:47;53.50;;;34.50;;
34234;SDS011;20500;49.856;20.290;2024-01-30T02:17:57;51.60;;;31.20;;
34234;SDS011;20500;49.856;20.290;2024-01-30T02:21:05;45.70;;;28.60;;
34234;SDS011;20500;49.856;20.290;2024-01-30T02:24:11;45.30;;;27.90;;
34234;SDS011;20500;49.856;20.290;2024-01-30T02:27:18;49.30;;;30.40;;
34234;SDS011;20500;49.856;20.290;2024-01-30T02:30:24;54.70;;;34.30;;
34234;SDS011;20500;49.856;20.290;2024-01-30T02:33:31;50.70;;;31.40;;
34234;SDS011;20500;49.856;20.290;2024-01-30T02:36:37;51.50;;;31.20;;
34234;SDS011;20500;49.856;20.290;2024-01-30T02:39:46;45.40;;;26.50;;
34234;SDS011;20500;49.856;20.290;2024-01-30T02:42:52;47.00;;;29.10;;
34234;SDS011;20500;49.856;20.290;2024-01-30T02:45:59;50.10;;;31.90;;
34234;SDS011;20500;49.856;20.290;2024-01-30T02:49:06;52.00;;;32.80;;
34234;SDS011;20500;49.856;20.290;2024-01-30T02:52:12;48.30;;;30.00;;
34234;SDS011;20500;49.856;20.290;2024-01-30T02:55:19;52.10;;;32.90;;
34234;SDS011;20500;49.856;20.290;2024-01-30T02:58:26;55.50;;;32.00;;
34234;SDS011;20500;49.856;20.290;2024-01-30T03:01:32;56.10;;;32.30;;
34234;SDS011;20500;49.856;20.290;2024-01-30T03:04:47;50.90;;;30.80;;
34234;SDS011;20500;49.856;20.290;2024-01-30T03:07:53;51.20;;;31.10;;
34234;SDS011;20500;49.856;20.290;2024-01-30T03:11:00;47.40;;;29.40;;
34234;SDS011;20500;49.856;20.290;2024-01-30T03:14:07;48.30;;;29.90;;
34234;SDS011;20500;49.856;20.290;2024-01-30T03:17:14;47.90;;;31.00;;
34234;SDS011;20500;49.856;20.290;2024-01-30T03:20:21;51.10;;;32.00;;
34234;SDS011;20500;49.856;20.290;2024-01-30T03:23:27;49.80;;;30.70;;
34234;SDS011;20500;49.856;20.290;2024-01-30T03:26:35;50.30;;;30.50;;
34234;SDS011;20500;49.856;20.290;2024-01-30T03:29:42;50.70;;;30.80;;
34234;SDS011;20500;49.856;20.290;2024-01-30T03:32:48;50.10;;;29.90;;
34234;SDS011;20500;49.856;20.290;2024-01-30T03:35:54;49.70;;;28.40;;
34234;SDS011;20500;49.856;20.290;2024-01-30T03:42:06;48.50;;;28.40;;
34234;SDS011;20500;49.856;20.290;2024-01-30T03:45:12;43.60;;;26.70;;
34234;SDS011;20500;49.856;20.290;2024-01-30T03:48:19;49.40;;;28.00;;
34234;SDS011;20500;49.856;20.290;2024-01-30T03:51:26;45.90;;;27.50;;
34234;SDS011;20500;49.856;20.290;2024-01-30T03:54:32;43.70;;;28.10;;
34234;SDS011;20500;49.856;20.290;2024-01-30T04:00:44;44.00;;;27.30;;
34234;SDS011;20500;49.856;20.290;2024-01-30T04:03:50;44.70;;;26.70;;
34234;SDS011;20500;49.856;20.290;2024-01-30T04:06:57;38.60;;;23.00;;
34234;SDS011;20500;49.856;20.290;2024-01-30T04:10:04;36.20;;;20.10;;
34234;SDS011;20500;49.856;20.290;2024-01-30T04:13:12;31.60;;;16.50;;
34234;SDS011;20500;49.856;20.290;2024-01-30T04:16:22;28.20;;;16.00;;
34234;SDS011;20500;49.856;20.290;2024-01-30T04:19:29;40.70;;;22.60;;
34234;SDS011;20500;49.856;20.290;2024-01-30T04:22:35;41.20;;;24.70;;
34234;SDS011;20500;49.856;20.290;2024-01-30T04:25:42;44.90;;;26.20;;
34234;SDS011;20500;49.856;20.290;2024-01-30T04:28:48;46.90;;;27.80;;
34234;SDS011;20500;49.856;20.290;2024-01-30T04:31:54;41.20;;;24.70;;
34234;SDS011;20500;49.856;20.290;2024-01-30T04:35:01;40.80;;;24.30;;
34234;SDS011;20500;49.856;20.290;2024-01-30T04:38:13;41.30;;;24.40;;
34234;SDS011;20500;49.856;20.290;2024-01-30T04:41:20;44.70;;;25.90;;
34234;SDS011;20500;49.856;20.290;2024-01-30T04:44:26;42.50;;;25.00;;
34234;SDS011;20500;49.856;20.290;2024-01-30T04:47:32;41.70;;;24.80;;
34234;SDS011;20500;49.856;20.290;2024-01-30T04:50:39;43.60;;;25.50;;
34234;SDS011;20500;49.856;20.290;2024-01-30T04:53:45;42.40;;;25.90;;
34234;SDS011;20500;49.856;20.290;2024-01-30T04:59:56;40.40;;;25.50;;
34234;SDS011;20500;49.856;20.290;2024-01-30T05:03:03;38.90;;;24.50;;
34234;SDS011;20500;49.856;20.290;2024-01-30T05:06:09;36.90;;;23.20;;
34234;SDS011;20500;49.856;20.290;2024-01-30T05:09:16;38.90;;;23.90;;
34234;SDS011;20500;49.856;20.290;2024-01-30T05:12:23;40.30;;;24.20;;
34234;SDS011;20500;49.856;20.290;2024-01-30T05:15:29;43.80;;;25.20;;
34234;SDS011;20500;49.856;20.290;2024-01-30T05:18:35;42.90;;;25.90;;
34234;SDS011;20500;49.856;20.290;2024-01-30T05:21:42;39.20;;;22.50;;
34234;SDS011;20500;49.856;20.290;2024-01-30T05:24:48;39.30;;;24.60;;
34234;SDS011;20500;49.856;20.290;2024-01-30T05:27:55;38.50;;;21.60;;
34234;SDS011;20500;49.856;20.290;2024-01-30T05:31:01;37.90;;;23.10;;
34234;SDS011;20500;49.856;20.290;2024-01-30T05:34:08;34.20;;;21.50;;
34234;SDS011;20500;49.856;20.290;2024-01-30T05:37:15;38.20;;;21.00;;
34234;SDS011;20500;49.856;20.290;2024-01-30T05:40:21;33.90;;;20.60;;
34234;SDS011;20500;49.856;20.290;2024-01-30T05:43:28;33.40;;;19.50;;
34234;SDS011;20500;49.856;20.290;2024-01-30T05:46:35;36.30;;;20.60;;
34234;SDS011;20500;49.856;20.290;2024-01-30T05:49:41;42.50;;;22.70;;
34234;SDS011;20500;49.856;20.290;2024-01-30T05:52:48;36.60;;;20.80;;
34234;SDS011;20500;49.856;20.290;2024-01-30T05:58:58;34.10;;;19.60;;
34234;SDS011;20500;49.856;20.290;2024-01-30T06:02:05;33.10;;;20.60;;
34234;SDS011;20500;49.856;20.290;2024-01-30T06:05:12;33.50;;;18.90;;
34234;SDS011;20500;49.856;20.290;2024-01-30T06:08:18;31.10;;;18.10;;
34234;SDS011;20500;49.856;20.290;2024-01-30T06:11:25;31.70;;;18.20;;
34234;SDS011;20500;49.856;20.290;2024-01-30T06:14:31;30.40;;;17.80;;
34234;SDS011;20500;49.856;20.290;2024-01-30T06:17:37;29.90;;;17.90;;
34234;SDS011;20500;49.856;20.290;2024-01-30T06:20:45;31.10;;;17.20;;
34234;SDS011;20500;49.856;20.290;2024-01-30T06:23:51;31.80;;;19.40;;
34234;SDS011;20500;49.856;20.290;2024-01-30T06:26:57;31.10;;;19.20;;
34234;SDS011;20500;49.856;20.290;2024-01-30T06:30:04;32.30;;;19.80;;
34234;SDS011;20500;49.856;20.290;2024-01-30T06:33:13;32.70;;;18.70;;
34234;SDS011;20500;49.856;20.290;2024-01-30T06:36:19;33.60;;;19.80;;
34234;SDS011;20500;49.856;20.290;2024-01-30T06:39:26;34.40;;;20.80;;
34234;SDS011;20500;49.856;20.290;2024-01-30T06:42:32;36.70;;;24.50;;
34234;SDS011;20500;49.856;20.290;2024-01-30T06:45:39;32.40;;;19.90;;
34234;SDS011;20500;49.856;20.290;2024-01-30T06:48:46;33.70;;;21.80;;
34234;SDS011;20500;49.856;20.290;2024-01-30T06:51:52;36.10;;;19.70;;
34234;SDS011;20500;49.856;20.290;2024-01-30T06:54:59;36.00;;;22.50;;
34234;SDS011;20500;49.856;20.290;2024-01-30T06:58:06;36.70;;;21.90;;
34234;SDS011;20500;49.856;20.290;2024-01-30T07:01:13;39.30;;;23.80;;
34234;SDS011;20500;49.856;20.290;2024-01-30T07:04:19;33.90;;;21.10;;
34234;SDS011;20500;49.856;20.290;2024-01-30T07:07:26;36.10;;;20.70;;
34234;SDS011;20500;49.856;20.290;2024-01-30T07:10:33;31.70;;;20.00;;
34234;SDS011;20500;49.856;20.290;2024-01-30T07:13:39;34.90;;;20.40;;
34234;SDS011;20500;49.856;20.290;2024-01-30T07:19:50;31.80;;;18.30;;
34234;SDS011;20500;49.856;20.290;2024-01-30T07:22:56;28.20;;;17.70;;
34234;SDS011;20500;49.856;20.290;2024-01-30T07:26:03;29.50;;;18.50;;
34234;SDS011;20500;49.856;20.290;2024-01-30T07:29:11;31.90;;;19.00;;
34234;SDS011;20500;49.856;20.290;2024-01-30T07:32:17;38.40;;;25.40;;
34234;SDS011;20500;49.856;20.290;2024-01-30T07:35:24;35.10;;;22.20;;
34234;SDS011;20500;49.856;20.290;2024-01-30T07:38:32;34.70;;;21.60;;
34234;SDS011;20500;49.856;20.290;2024-01-30T07:41:39;32.70;;;20.40;;
34234;SDS011;20500;49.856;20.290;2024-01-30T07:44:45;38.90;;;21.70;;
34234;SDS011;20500;49.856;20.290;2024-01-30T07:47:52;31.60;;;20.30;;
34234;SDS011;20500;49.856;20.290;2024-01-30T07:50:58;34.10;;;21.50;;
34234;SDS011;20500;49.856;20.290;2024-01-30T07:57:26;38.00;;;24.20;;
34234;SDS011;20500;49.856;20.290;2024-01-30T08:00:33;33.60;;;20.90;;
34234;SDS011;20500;49.856;20.290;2024-01-30T08:03:40;33.80;;;21.10;;
34234;SDS011;20500;49.856;20.290;2024-01-30T08:06:46;52.30;;;33.90;;
34234;SDS011;20500;49.856;20.290;2024-01-30T08:12:57;41.40;;;28.50;;
34234;SDS011;20500;49.856;20.290;2024-01-30T08:16:04;50.50;;;33.00;;
34234;SDS011;20500;49.856;20.290;2024-01-30T08:19:15;61.40;;;38.70;;
34234;SDS011;20500;49.856;20.290;2024-01-30T08:22:21;61.30;;;39.00;;
34234;SDS011;20500;49.856;20.290;2024-01-30T08:25:28;56.80;;;36.40;;
34234;SDS011;20500;49.856;20.290;2024-01-30T08:31:39;53.80;;;34.30;;
34234;SDS011;20500;49.856;20.290;2024-01-30T08:34:45;45.40;;;29.00;;
34234;SDS011;20500;49.856;20.290;2024-01-30T08:37:51;38.70;;;26.10;;
34234;SDS011;20500;49.856;20.290;2024-01-30T08:40:58;36.40;;;24.70;;
34234;SDS011;20500;49.856;20.290;2024-01-30T08:44:04;35.80;;;23.60;;
34234;SDS011;20500;49.856;20.290;2024-01-30T08:50:15;30.70;;;19.00;;
34234;SDS011;20500;49.856;20.290;2024-01-30T08:53:21;29.70;;;19.80;;
34234;SDS011;20500;49.856;20.290;2024-01-30T08:56:28;29.60;;;18.00;;
34234;SDS011;20500;49.856;20.290;2024-01-30T08:59:34;26.50;;;14.70;;
34234;SDS011;20500;49.856;20.290;2024-01-30T09:05:45;23.40;;;13.00;;
34234;SDS011;20500;49.856;20.290;2024-01-30T09:08:51;19.40;;;10.60;;
34234;SDS011;20500;49.856;20.290;2024-01-30T09:11:58;25.60;;;15.00;;
34234;SDS011;20500;49.856;20.290;2024-01-30T09:15:08;26.70;;;14.30;;
34234;SDS011;20500;49.856;20.290;2024-01-30T09:18:15;19.10;;;9.40;;
34234;SDS011;20500;49.856;20.290;2024-01-30T09:21:22;19.30;;;10.30;;
34234;SDS011;20500;49.856;20.290;2024-01-30T09:24:28;29.90;;;14.00;;
34234;SDS011;20500;49.856;20.290;2024-01-30T09:27:34;34.70;;;17.90;;
34234;SDS011;20500;49.856;20.290;2024-01-30T09:30:40;21.00;;;10.50;;
34234;SDS011;20500;49.856;20.290;2024-01-30T09:33:46;29.30;;;14.10;;
34234;SDS011;20500;49.856;20.290;2024-01-30T09:36:54;29.60;;;13.90;;
34234;SDS011;20500;49.856;20.290;2024-01-30T09:40:00;23.40;;;11.10;;
34234;SDS011;20500;49.856;20.290;2024-01-30T09:43:08;19.40;;;9.00;;
34234;SDS011;20500;49.856;20.290;2024-01-30T09:46:20;16.80;;;7.70;;
34234;SDS011;20500;49.856;20.290;2024-01-30T09:49:31;17.40;;;6.90;;
34234;SDS011;20500;49.856;20.290;2024-01-30T09:52:38;14.40;;;6.60;;
34234;SDS011;20500;49.856;20.290;2024-01-30T09:55:45;15.80;;;6.40;;
34234;SDS011;20500;49.856;20.290;2024-01-30T09:58:51;16.60;;;7.10;;
34234;SDS011;20500;49.856;20.290;2024-01-30T10:01:58;14.10;;;7.00;;
34234;SDS011;20500;49.856;20.290;2024-01-30T10:05:05;16.00;;;7.30;;
34234;SDS011;20500;49.856;20.290;2024-01-30T10:08:12;17.70;;;8.30;;
34234;SDS011;20500;49.856;20.290;2024-01-30T10:11:22;15.60;;;7.00;;
34234;SDS011;20500;49.856;20.290;2024-01-30T10:17:33;14.40;;;5.80;;
34234;SDS011;20500;49.856;20.290;2024-01-30T10:20:41;14.20;;;6.20;;
34234;SDS011;20500;49.856;20.290;2024-01-30T10:23:47;16.20;;;7.00;;
34234;SDS011;20500;49.856;20.290;2024-01-30T10:29:58;12.80;;;5.10;;
34234;SDS011;20500;49.856;20.290;2024-01-30T10:33:07;13.70;;;6.20;;
34234;SDS011;20500;49.856;20.290;2024-01-30T10:36:14;15.80;;;6.40;;
34234;SDS011;20500;49.856;20.290;2024-01-30T10:39:23;14.70;;;6.20;;
34234;SDS011;20500;49.856;20.290;2024-01-30T10:42:33;13.20;;;6.10;;
34234;SDS011;20500;49.856;20.290;2024-01-30T10:45:45;13.00;;;6.10;;
34234;SDS011;20500;49.856;20.290;2024-01-30T10:48:57;14.00;;;6.40;;
34234;SDS011;20500;49.856;20.290;2024-01-30T10:52:05;13.10;;;5.20;;
34234;SDS011;20500;49.856;20.290;2024-01-30T10:55:12;12.50;;;5.60;;
34234;SDS011;20500;49.856;20.290;2024-01-30T10:58:20;12.10;;;5.50;;
34234;SDS011;20500;49.856;20.290;2024-01-30T11:01:28;12.90;;;5.50;;
34234;SDS011;20500;49.856;20.290;2024-01-30T11:04:39;13.80;;;5.90;;
34234;SDS011;20500;49.856;20.290;2024-01-30T11:07:47;14.30;;;6.50;;
34234;SDS011;20500;49.856;20.290;2024-01-30T11:10:55;12.40;;;5.70;;
34234;SDS011;20500;49.856;20.290;2024-01-30T11:14:03;13.30;;;6.00;;
34234;SDS011;20500;49.856;20.290;2024-01-30T11:17:09;14.90;;;6.60;;
34234;SDS011;20500;49.856;20.290;2024-01-30T11:20:16;11.50;;;4.80;;
34234;SDS011;20500;49.856;20.290;2024-01-30T11:23:24;10.10;;;3.90;;
34234;SDS011;20500;49.856;20.290;2024-01-30T11:26:32;12.50;;;4.80;;
34234;SDS011;20500;49.856;20.290;2024-01-30T11:29:38;11.20;;;4.70;;
34234;SDS011;20500;49.856;20.290;2024-01-30T11:32:46;11.60;;;5.30;;
34234;SDS011;20500;49.856;20.290;2024-01-30T11:36:02;12.70;;;5.80;;
34234;SDS011;20500;49.856;20.290;2024-01-30T11:39:11;11.10;;;4.00;;
34234;SDS011;20500;49.856;20.290;2024-01-30T11:42:19;10.50;;;4.00;;
34234;SDS011;20500;49.856;20.290;2024-01-30T11:45:28;14.00;;;5.00;;
34234;SDS011;20500;49.856;20.290;2024-01-30T11:48:35;11.50;;;4.90;;
34234;SDS011;20500;49.856;20.290;2024-01-30T11:51:41;12.10;;;5.30;;
34234;SDS011;20500;49.856;20.290;2024-01-30T11:54:51;14.00;;;6.40;;
34234;SDS011;20500;49.856;20.290;2024-01-30T11:57:58;11.80;;;5.10;;
34234;SDS011;20500;49.856;20.290;2024-01-30T12:01:05;13.70;;;6.40;;
34234;SDS011;20500;49.856;20.290;2024-01-30T12:07:16;12.90;;;5.70;;
34234;SDS011;20500;49.856;20.290;2024-01-30T12:13:27;14.40;;;6.60;;
34234;SDS011;20500;49.856;20.290;2024-01-30T12:16:35;14.00;;;6.10;;
34234;SDS011;20500;49.856;20.290;2024-01-30T12:19:41;14.20;;;6.90;;
34234;SDS011;20500;49.856;20.290;2024-01-30T12:22:48;11.80;;;5.60;;
34234;SDS011;20500;49.856;20.290;2024-01-30T12:25:56;13.00;;;6.10;;
34234;SDS011;20500;49.856;20.290;2024-01-30T12:29:03;12.40;;;5.80;;
34234;SDS011;20500;49.856;20.290;2024-01-30T12:32:14;13.20;;;5.60;;
34234;SDS011;20500;49.856;20.290;2024-01-30T12:35:21;12.70;;;5.30;;
34234;SDS011;20500;49.856;20.290;2024-01-30T12:38:28;11.90;;;5.10;;
34234;SDS011;20500;49.856;20.290;2024-01-30T12:41:35;13.10;;;5.60;;
34234;SDS011;20500;49.856;20.290;2024-01-30T12:44:42;13.10;;;5.80;;
34234;SDS011;20500;49.856;20.290;2024-01-30T12:47:48;12.30;;;5.40;;
34234;SDS011;20500;49.856;20.290;2024-01-30T12:50:55;12.20;;;5.30;;
34234;SDS011;20500;49.856;20.290;2024-01-30T12:54:05;11.20;;;5.00;;
34234;SDS011;20500;49.856;20.290;2024-01-30T12:57:12;12.50;;;5.90;;
34234;SDS011;20500;49.856;20.290;2024-01-30T13:00:18;12.10;;;6.00;;
34234;SDS011;20500;49.856;20.290;2024-01-30T13:03:25;11.70;;;5.50;;
34234;SDS011;20500;49.856;20.290;2024-01-30T13:06:31;11.50;;;4.80;;
34234;SDS011;20500;49.856;20.290;2024-01-30T13:09:37;12.70;;;5.50;;
34234;SDS011;20500;49.856;20.290;2024-01-30T13:12:43;13.50;;;6.80;;
34234;SDS011;20500;49.856;20.290;2024-01-30T13:15:50;12.00;;;5.40;;
34234;SDS011;20500;49.856;20.290;2024-01-30T13:18:56;11.70;;;5.50;;
34234;SDS011;20500;49.856;20.290;2024-01-30T13:22:04;12.70;;;6.00;;
34234;SDS011;20500;49.856;20.290;2024-01-30T13:25:10;12.20;;;5.10;;
34234;SDS011;20500;49.856;20.290;2024-01-30T13:28:17;10.10;;;4.10;;
34234;SDS011;20500;49.856;20.290;2024-01-30T13:34:28;9.70;;;3.90;;
34234;SDS011;20500;49.856;20.290;2024-01-30T13:37:34;11.30;;;4.50;;
34234;SDS011;20500;49.856;20.290;2024-01-30T13:40:40;10.70;;;4.90;;
34234;SDS011;20500;49.856;20.290;2024-01-30T13:43:47;10.80;;;4.30;;
34234;SDS011;20500;49.856;20.290;2024-01-30T13:46:53;11.90;;;4.10;;
34234;SDS011;20500;49.856;20.290;2024-01-30T13:53:04;11.50;;;5.00;;
34234;SDS011;20500;49.856;20.290;2024-01-30T13:56:10;11.30;;;4.70;;
34234;SDS011;20500;49.856;20.290;2024-01-30T13:59:16;10.20;;;3.90;;
34234;SDS011;20500;49.856;20.290;2024-01-30T14:02:26;34.90;;;21.40;;
34234;SDS011;20500;49.856;20.290;2024-01-30T14:08:38;14.00;;;6.60;;
34234;SDS011;20500;49.856;20.290;2024-01-30T14:11:50;13.70;;;6.10;;
34234;SDS011;20500;49.856;20.290;2024-01-30T14:14:56;13.90;;;7.10;;
34234;SDS011;20500;49.856;20.290;2024-01-30T14:18:05;13.10;;;6.60;;
34234;SDS011;20500;49.856;20.290;2024-01-30T14:21:12;15.20;;;7.60;;
34234;SDS011;20500;49.856;20.290;2024-01-30T14:27:22;15.00;;;7.40;;
34234;SDS011;20500;49.856;20.290;2024-01-30T14:30:29;16.80;;;8.50;;
34234;SDS011;20500;49.856;20.290;2024-01-30T14:33:35;15.30;;;8.40;;
34234;SDS011;20500;49.856;20.290;2024-01-30T14:36:43;16.30;;;8.30;;
34234;SDS011;20500;49.856;20.290;2024-01-30T14:39:49;15.40;;;8.00;;
34234;SDS011;20500;49.856;20.290;2024-01-30T14:42:56;15.40;;;8.20;;
34234;SDS011;20500;49.856;20.290;2024-01-30T14:49:09;15.30;;;7.50;;
34234;SDS011;20500;49.856;20.290;2024-01-30T14:55:20;14.00;;;7.10;;
34234;SDS011;20500;49.856;20.290;2024-01-30T14:58:27;14.60;;;7.50;;
34234;SDS011;20500;49.856;20.290;2024-01-30T15:04:38;14.60;;;7.40;;
34234;SDS011;20500;49.856;20.290;2024-01-30T15:07:44;16.10;;;8.40;;
34234;SDS011;20500;49.856;20.290;2024-01-30T15:10:51;18.70;;;9.00;;
34234;SDS011;20500;49.856;20.290;2024-01-30T15:13:57;18.00;;;8.30;;
34234;SDS011;20500;49.856;20.290;2024-01-30T15:17:03;16.50;;;8.50;;
34234;SDS011;20500;49.856;20.290;2024-01-30T15:20:10;17.50;;;9.90;;
34234;SDS011;20500;49.856;20.290;2024-01-30T15:23:16;16.60;;;9.00;;
34234;SDS011;20500;49.856;20.290;2024-01-30T15:26:22;17.20;;;9.80;;
34234;SDS011;20500;49.856;20.290;2024-01-30T15:29:29;16.40;;;9.50;;
34234;SDS011;20500;49.856;20.290;2024-01-30T15:35:40;17.60;;;9.60;;
34234;SDS011;20500;49.856;20.290;2024-01-30T15:38:46;18.00;;;9.70;;
34234;SDS011;20500;49.856;20.290;2024-01-30T15:44:57;16.70;;;8.60;;
34234;SDS011;20500;49.856;20.290;2024-01-30T15:51:08;17.30;;;9.70;;
34234;SDS011;20500;49.856;20.290;2024-01-30T15:54:14;21.30;;;11.80;;
34234;SDS011;20500;49.856;20.290;2024-01-30T15:57:21;20.70;;;9.70;;
34234;SDS011;20500;49.856;20.290;2024-01-30T16:00:30;55.80;;;35.20;;
34234;SDS011;20500;49.856;20.290;2024-01-30T16:03:37;39.60;;;24.70;;
34234;SDS011;20500;49.856;20.290;2024-01-30T16:06:43;47.40;;;28.80;;
34234;SDS011;20500;49.856;20.290;2024-01-30T16:09:50;52.90;;;29.60;;
34234;SDS011;20500;49.856;20.290;2024-01-30T16:12:56;32.30;;;17.30;;
34234;SDS011;20500;49.856;20.290;2024-01-30T16:16:02;34.20;;;19.20;;
34234;SDS011;20500;49.856;20.290;2024-01-30T16:19:09;31.30;;;17.40;;
34234;SDS011;20500;49.856;20.290;2024-01-30T16:22:16;30.00;;;17.00;;
34234;SDS011;20500;49.856;20.290;2024-01-30T16:25:23;31.50;;;16.30;;
34234;SDS011;20500;49.856;20.290;2024-01-30T16:31:35;30.10;;;17.30;;
34234;SDS011;20500;49.856;20.290;2024-01-30T16:34:42;29.30;;;15.20;;
34234;SDS011;20500;49.856;20.290;2024-01-30T16:37:48;33.00;;;17.50;;
34234;SDS011;20500;49.856;20.290;2024-01-30T16:40:54;27.90;;;16.00;;
34234;SDS011;20500;49.856;20.290;2024-01-30T16:47:05;58.90;;;33.80;;
34234;SDS011;20500;49.856;20.290;2024-01-30T16:50:11;53.00;;;31.90;;
34234;SDS011;20500;49.856;20.290;2024-01-30T16:56:22;52.90;;;29.80;;
34234;SDS011;20500;49.856;20.290;2024-01-30T16:59:28;46.90;;;27.80;;
34234;SDS011;20500;49.856;20.290;2024-01-30T17:02:34;49.70;;;29.80;;
34234;SDS011;20500;49.856;20.290;2024-01-30T17:05:41;43.90;;;25.10;;
34234;SDS011;20500;49.856;20.290;2024-01-30T17:08:47;39.60;;;24.40;;
34234;SDS011;20500;49.856;20.290;2024-01-30T17:11:53;47.10;;;27.60;;
34234;SDS011;20500;49.856;20.290;2024-01-30T17:14:59;45.40;;;25.30;;
34234;SDS011;20500;49.856;20.290;2024-01-30T17:18:05;42.00;;;24.40;;
34234;SDS011;20500;49.856;20.290;2024-01-30T17:21:16;43.00;;;24.00;;
34234;SDS011;20500;49.856;20.290;2024-01-30T17:24:24;56.30;;;31.90;;
34234;SDS011;20500;49.856;20.290;2024-01-30T17:27:44;59.90;;;33.10;;
34234;SDS011;20500;49.856;20.290;2024-01-30T17:30:52;52.70;;;28.30;;
34234;SDS011;20500;49.856;20.290;2024-01-30T17:33:58;52.40;;;29.50;;
34234;SDS011;20500;49.856;20.290;2024-01-30T17:40:11;44.50;;;24.60;;
34234;SDS011;20500;49.856;20.290;2024-01-30T17:43:17;48.80;;;27.50;;
34234;SDS011;20500;49.856;20.290;2024-01-30T17:46:24;47.10;;;27.60;;
34234;SDS011;20500;49.856;20.290;2024-01-30T17:52:34;85.80;;;40.90;;
34234;SDS011;20500;49.856;20.290;2024-01-30T17:55:41;56.20;;;29.70;;
34234;SDS011;20500;49.856;20.290;2024-01-30T18:01:52;49.40;;;26.60;;
34234;SDS011;20500;49.856;20.290;2024-01-30T18:08:03;49.60;;;26.60;;
34234;SDS011;20500;49.856;20.290;2024-01-30T18:11:11;62.70;;;30.90;;
34234;SDS011;20500;49.856;20.290;2024-01-30T18:14:17;64.90;;;33.00;;
34234;SDS011;20500;49.856;20.290;2024-01-30T18:17:25;65.60;;;34.00;;
34234;SDS011;20500;49.856;20.290;2024-01-30T18:20:31;66.70;;;30.40;;
34234;SDS011;20500;49.856;20.290;2024-01-30T18:26:42;59.10;;;31.00;;
34234;SDS011;20500;49.856;20.290;2024-01-30T18:29:48;53.30;;;30.20;;
34234;SDS011;20500;49.856;20.290;2024-01-30T18:32:55;62.20;;;32.60;;
34234;SDS011;20500;49.856;20.290;2024-01-30T18:36:02;79.60;;;40.50;;
34234;SDS011;20500;49.856;20.290;2024-01-30T18:39:09;71.60;;;42.80;;
34234;SDS011;20500;49.856;20.290;2024-01-30T18:42:16;58.40;;;35.30;;
34234;SDS011;20500;49.856;20.290;2024-01-30T18:45:22;66.10;;;38.00;;
34234;SDS011;20500;49.856;20.290;2024-01-30T18:51:34;84.00;;;48.40;;
34234;SDS011;20500;49.856;20.290;2024-01-30T18:57:44;93.40;;;45.90;;
34234;SDS011;20500;49.856;20.290;2024-01-30T19:00:51;77.10;;;44.10;;
34234;SDS011;20500;49.856;20.290;2024-01-30T19:03:57;82.30;;;44.50;;
34234;SDS011;20500;49.856;20.290;2024-01-30T19:07:04;83.10;;;44.60;;
34234;SDS011;20500;49.856;20.290;2024-01-30T19:10:10;74.00;;;43.00;;
34234;SDS011;20500;49.856;20.290;2024-01-30T19:13:17;70.30;;;42.40;;
34234;SDS011;20500;49.856;20.290;2024-01-30T19:16:23;68.00;;;40.20;;
34234;SDS011;20500;49.856;20.290;2024-01-30T19:19:29;58.00;;;36.00;;
34234;SDS011;20500;49.856;20.290;2024-01-30T19:25:40;46.90;;;28.90;;
34234;SDS011;20500;49.856;20.290;2024-01-30T19:28:50;79.00;;;47.60;;
34234;SDS011;20500;49.856;20.290;2024-01-30T19:31:56;58.60;;;36.60;;
34234;SDS011;20500;49.856;20.290;2024-01-30T19:38:07;47.30;;;26.70;;
34234;SDS011;20500;49.856;20.290;2024-01-30T19:41:17;60.90;;;32.30;;
34234;SDS011;20500;49.856;20.290;2024-01-30T19:44:23;33.70;;;17.90;;
34234;SDS011;20500;49.856;20.290;2024-01-30T19:47:29;134.50;;;118.10;;
34234;SDS011;20500;49.856;20.290;2024-01-30T19:50:36;36.50;;;22.60;;
34234;SDS011;20500;49.856;20.290;2024-01-30T19:56:46;59.60;;;37.70;;
34234;SDS011;20500;49.856;20.290;2024-01-30T20:02:57;59.90;;;33.60;;
34234;SDS011;20500;49.856;20.290;2024-01-30T20:09:09;84.10;;;49.20;;
34234;SDS011;20500;49.856;20.290;2024-01-30T20:12:15;73.50;;;42.80;;